Quinnimont, West Virginia
Current Conditions -  °F | °C
As of 11:51 PM on Friday 31 Oct 2014 (Local Time) from KBKW Reporting Station
Haze Haze  
Wind Chill: 32°   Ceiling: 400
Heat Index: 37°   Visibility: 6mi
Dew Point: 34°   Wind: 6mph
Humidity: 89%   Direction: 350°N
Pressure: 29.82"   Gusts: NA
Location:  37.8544°N, 81.0446°W
Report Text: KBKW 010351Z AUTO 35005KT 6SM BR BKN004 OVC009 03/01 A2982 RMK AO2 RAB03E27 SLP109 P0000 T00280011 TSNO
Loading
Personal Weather Stations






























Interactive Weather Map
Tropical Storm Tracking
New forecast layout! Learn more

10-Day Weather Forecast

Advertisements
Track Severe Weather on mobile